Tak, Mae Sot Airport (VTPM)

NameMae Sot Airport
CityTak
CountryThailand
ICAOVTPM
IATAMAQ
Altitude210 m
CoordinatesGoogle Map
Live Air TrafficLiveATC.net
METARVTPM 180100Z 00000KT CAVOK 20/18 Q1015 NOSIG
2019-01-18 01:00:00 Wind: North (0°) 0 m/s - Visibility: > 10000 m - Weather: CAVOK - Temperature: 20 °C - Dew point: 18 °C - Humidity: 88.3% - Pressure: 1015 hPa
Statistics

The table below shows the detailed information of all flights to/from Tak, Mae Sot Airport (VTPM).